Time;durP1;ratioP1;P1;durP2;ratioP2;P2;SDS_P1;SDS_P2;PMS_P1;PMS_P2;Temp;Humidity;BMP_temperature;BMP_pressure;BME280_temperature;BME280_humidity;BME280_pressure;Samples;Min_cycle;Max_cycle;Signal;HPM_P1;HPM_P2
2021/07/01 00:00:07;;;;;;;;;0.00;0.00;;;;;17.85;60.65;101278.09;5123312;27;45241;-63
2021/07/01 00:02:32;;;;;;;;;0.00;0.00;;;;;17.85;61.19;101278.91;5104887;27;45476;-63
2021/07/01 00:04:58;;;;;;;;;0.00;0.00;;;;;17.82;60.65;101273.91;5097631;27;47228;-63
2021/07/01 00:07:23;;;;;;;;;0.00;0.00;;;;;17.83;60.89;101272.91;5084841;27;46030;-64
2021/07/01 00:09:48;;;;;;;;;0.00;0.00;;;;;17.85;61.00;101278.91;5123742;27;45255;-63
2021/07/01 00:12:13;;;;;;;;;0.00;0.00;;;;;17.86;61.08;101282.41;5123125;27;45300;-64
2021/07/01 00:14:39;;;;;;;;;0.00;0.00;;;;;17.88;61.04;101283.06;5109177;27;45381;-63
2021/07/01 00:17:04;;;;;;;;;0.00;0.00;;;;;17.86;61.10;101279.75;5104846;27;45354;-63
2021/07/01 00:19:30;;;;;;;;;0.00;0.00;;;;;17.87;60.62;101282.25;5123579;27;45239;-65
2021/07/01 00:21:56;;;;;;;;;0.00;0.00;;;;;17.84;61.03;101271.94;5123726;27;45489;-63
2021/07/01 00:24:21;;;;;;;;;0.00;0.00;;;;;17.84;60.92;101274.59;5123158;27;46091;-64
2021/07/01 00:26:46;;;;;;;;;0.00;0.00;;;;;17.79;60.75;101275.00;5123263;27;45171;-64
2021/07/01 00:29:12;;;;;;;;;0.00;0.00;;;;;17.79;61.03;101276.84;5123304;27;45260;-64
2021/07/01 00:31:37;;;;;;;;;0.00;0.00;;;;;17.80;60.80;101276.69;5123733;27;45225;-64
2021/07/01 00:34:03;;;;;;;;;0.00;0.00;;;;;17.85;60.92;101278.09;5123153;27;46272;-64
2021/07/01 00:36:29;;;;;;;;;0.00;0.00;;;;;17.89;60.78;101279.44;5123737;27;45258;-64
2021/07/01 00:38:54;;;;;;;;;0.00;0.00;;;;;17.90;60.61;101276.63;5123734;27;45216;-64
2021/07/01 00:47:08;;;;;;;;;0.00;0.00;;;;;17.94;60.87;101277.97;5070706;28;73389;-65
2021/07/01 00:49:34;;;;;;;;;0.00;0.00;;;;;17.94;60.83;101274.50;5059237;28;45558;-64
2021/07/01 00:51:59;;;;;;;;;0.00;0.00;;;;;17.96;60.16;101280.50;5079852;28;45607;-64
2021/07/01 00:54:25;;;;;;;;;0.00;0.00;;;;;17.96;60.48;101270.69;5079490;28;46310;-64
2021/07/01 00:56:50;;;;;;;;;0.00;0.00;;;;;17.97;60.55;101271.50;5079018;28;45454;-63
2021/07/01 00:59:16;;;;;;;;;0.00;0.00;;;;;17.99;60.53;101280.16;5062228;28;45390;-64
2021/07/01 01:01:41;;;;;;;;;0.00;0.00;;;;;17.97;60.54;101275.03;5079749;28;45393;-64
2021/07/01 01:04:07;;;;;;;;;0.00;0.00;;;;;17.93;59.96;101281.63;5079146;28;46146;-64
2021/07/01 01:06:33;;;;;;;;;0.00;0.00;;;;;17.86;60.72;101277.94;5079482;28;45393;-64
2021/07/01 01:09:01;;;;;;;;;25.00;22.00;;;;;17.80;60.51;101267.88;5079739;28;45362;-64
2021/07/01 01:11:27;;;;;;;;;0.00;0.00;;;;;17.81;60.81;101266.88;5079997;28;45291;-64
2021/07/01 01:13:54;;;;;;;;;0.00;0.00;;;;;17.78;60.88;101273.34;5079121;28;45436;-65
2021/07/01 01:16:20;;;;;;;;;0.00;0.00;;;;;17.76;60.57;101269.19;5105612;27;45387;-64
2021/07/01 01:18:46;;;;;;;;;0.00;0.00;;;;;17.75;60.93;101276.31;5116685;27;45477;-64
2021/07/01 01:21:23;;;;;;;;;0.00;0.00;;;;;17.72;60.87;101267.81;5104090;27;45591;-66
2021/07/01 01:23:48;;;;;;;;;0.00;0.00;;;;;17.75;60.83;101268.34;5102040;27;45282;-64
2021/07/01 01:26:14;;;;;;;;;0.00;0.00;;;;;17.80;61.24;101274.03;5102267;27;45360;-64
2021/07/01 01:28:39;;;;;;;;;0.00;0.00;;;;;17.83;60.58;101268.44;5101983;27;45445;-64
2021/07/01 01:31:05;;;;;;;;;0.00;0.00;;;;;17.87;61.15;101270.78;5102302;27;45257;-64
2021/07/01 01:33:30;;;;;;;;;0.00;0.00;;;;;17.91;60.78;101270.31;5101942;27;45237;-65
2021/07/01 01:35:55;;;;;;;;;0.00;0.00;;;;;17.94;60.80;101272.66;5083396;27;45241;-64
2021/07/01 01:38:21;;;;;;;;;0.00;0.00;;;;;17.97;60.61;101276.84;5102242;27;45404;-65
2021/07/01 01:40:50;;;;;;;;;0.00;0.00;;;;;17.97;60.48;101275.03;5102350;27;45156;-64
2021/07/01 01:43:17;;;;;;;;;0.00;0.00;;;;;17.93;60.73;101271.00;5101671;27;45374;-64
2021/07/01 01:45:44;;;;;;;;;0.00;0.00;;;;;17.92;60.68;101271.97;5101572;27;45455;-63
2021/07/01 01:48:10;;;;;;;;;0.00;0.00;;;;;17.91;60.63;101278.31;5083674;27;45474;-63
2021/07/01 01:50:36;;;;;;;;;0.00;0.00;;;;;17.88;60.71;101267.13;5102088;27;45333;-63
2021/07/01 01:53:02;;;;;;;;;0.00;0.00;;;;;17.89;61.01;101276.78;5101598;27;45301;-63
2021/07/01 01:55:27;;;;;;;;;0.00;0.00;;;;;17.87;61.00;101276.09;5091282;27;45287;-64
2021/07/01 01:57:53;;;;;;;;;0.00;0.00;;;;;17.82;60.93;101265.94;5105324;27;45335;-63
2021/07/01 02:00:21;;;;;;;;;0.00;0.00;;;;;17.82;60.63;101265.94;5104997;27;45410;-64
2021/07/01 02:02:47;;;;;;;;;0.00;0.00;;;;;17.77;60.97;101266.34;5105118;27;45418;-64
2021/07/01 02:05:13;;;;;;;;;0.00;0.00;;;;;17.74;61.04;101260.53;5091597;27;45441;-64
2021/07/01 02:07:39;;;;;;;;;0.00;0.00;;;;;17.70;61.50;101264.47;5105308;27;45449;-64
2021/07/01 02:10:16;;;;;;;;;0.00;0.00;;;;;17.65;61.54;101261.44;5105347;27;45236;-65
2021/07/01 02:12:41;;;;;;;;;0.00;0.00;;;;;17.62;61.28;101262.56;5115258;27;45421;-64
2021/07/01 02:15:13;;;;;;;;;0.00;0.00;;;;;17.59;61.60;101255.75;5125373;27;45193;-63
2021/07/01 02:17:39;;;;;;;;;0.00;0.00;;;;;17.59;61.63;101266.38;5107108;27;45265;-64
2021/07/01 02:20:10;;;;;;;;;0.00;0.00;;;;;17.58;62.06;101261.19;5113972;27;45332;-63
2021/07/01 02:22:35;;;;;;;;;0.00;0.00;;;;;17.53;61.89;101256.34;5086291;27;48865;-64
2021/07/01 02:25:01;;;;;;;;;0.00;0.00;;;;;17.49;61.96;101257.63;5104911;27;45337;-64
2021/07/01 02:27:27;;;;;;;;;0.00;0.00;;;;;17.47;62.06;101261.44;5104929;27;45383;-64
2021/07/01 02:29:52;;;;;;;;;0.00;0.00;;;;;17.43;62.01;101255.59;5104982;27;45259;-64
2021/07/01 02:32:18;;;;;;;;;0.00;0.00;;;;;17.37;62.72;101256.19;5104591;27;45316;-64
2021/07/01 02:34:43;;;;;;;;;0.00;0.00;;;;;17.34;62.71;101256.50;5104592;27;45266;-64
2021/07/01 02:37:10;;;;;;;;;0.00;0.00;;;;;17.31;62.88;101262.13;5104852;27;45427;-63
2021/07/01 02:39:36;;;;;;;;;0.00;0.00;;;;;17.26;62.78;101259.09;5105000;27;45233;-64
2021/07/01 02:42:02;;;;;;;;;0.00;0.00;;;;;17.29;63.06;101258.78;5104477;27;45783;-63
2021/07/01 02:44:27;;;;;;;;;0.00;0.00;;;;;17.28;62.99;101262.41;5104364;27;45550;-63
2021/07/01 02:46:53;;;;;;;;;0.00;0.00;;;;;17.24;63.63;101253.09;5104773;27;45788;-63
2021/07/01 02:49:18;;;;;;;;;0.00;0.00;;;;;17.22;63.26;101254.06;5104746;27;45388;-64
2021/07/01 02:51:44;;;;;;;;;0.00;0.00;;;;;17.20;63.28;101253.38;5104442;27;46455;-64
2021/07/01 02:54:09;;;;;;;;;0.00;0.00;;;;;17.19;63.78;101253.50;5104495;27;45360;-64
2021/07/01 02:56:40;;;;;;;;;0.00;0.00;;;;;17.20;63.75;101260.50;5117373;27;45497;-64
2021/07/01 02:59:10;;;;;;;;;0.00;0.00;;;;;17.21;63.52;101251.53;5104342;27;45218;-64
2021/07/01 03:01:36;;;;;;;;;0.00;0.00;;;;;17.23;63.31;101246.91;5104107;27;45628;-64
2021/07/01 03:04:01;;;;;;;;;0.00;0.00;;;;;17.21;63.66;101246.22;5114645;27;45346;-64
2021/07/01 03:06:27;;;;;;;;;0.00;0.00;;;;;17.20;63.71;101250.72;5104818;27;45318;-65
2021/07/01 03:08:54;;;;;;;;;0.00;0.00;;;;;17.20;63.52;101252.53;5104526;27;45492;-64
2021/07/01 03:11:20;;;;;;;;;0.00;0.00;;;;;17.18;63.89;101246.56;5104161;27;45366;-64
2021/07/01 03:13:45;;;;;;;;;0.00;0.00;;;;;17.16;64.11;101243.22;5098527;27;45279;-64
2021/07/01 03:16:15;;;;;;;;;0.00;0.00;;;;;17.19;64.21;101246.41;5124888;27;45439;-64
2021/07/01 03:18:40;;;;;;;;;0.00;0.00;;;;;17.17;64.18;101240.41;5106234;27;45291;-64
2021/07/01 03:21:06;;;;;;;;;0.00;0.00;;;;;17.19;63.75;101245.56;5103964;27;45409;-64
2021/07/01 03:23:31;;;;;;;;;0.00;0.00;;;;;17.18;63.99;101242.06;5085360;27;49773;-63
2021/07/01 03:25:56;;;;;;;;;0.00;0.00;;;;;17.20;64.14;101242.75;5104350;27;45325;-63
2021/07/01 03:28:22;;;;;;;;;0.00;0.00;;;;;17.20;64.45;101237.44;5103831;27;45385;-64
2021/07/01 03:30:47;;;;;;;;;0.00;0.00;;;;;17.22;64.21;101243.44;5103784;27;46257;-64
2021/07/01 03:33:12;;;;;;;;;0.00;0.00;;;;;17.24;63.96;101238.00;5103961;27;45448;-63
2021/07/01 03:35:37;;;;;;;;;0.00;0.00;;;;;17.26;64.12;101243.16;5103969;27;45238;-63
2021/07/01 03:38:03;;;;;;;;;0.00;0.00;;;;;17.26;64.11;101243.16;5085718;27;45588;-64
2021/07/01 03:40:28;;;;;;;;;0.00;0.00;;;;;17.26;63.96;101243.97;5103723;27;45271;-66
2021/07/01 03:42:53;;;;;;;;;0.00;0.00;;;;;17.28;64.16;101236.72;5085010;27;45583;-64
2021/07/01 03:45:19;;;;;;;;;0.00;0.00;;;;;17.26;63.98;101238.69;5103465;27;45234;-64
2021/07/01 03:47:44;;;;;;;;;0.00;0.00;;;;;17.25;64.21;101242.31;5085146;27;45310;-64
2021/07/01 03:50:10;;;;;;;;;0.00;0.00;;;;;17.22;64.01;101250.56;5084711;27;46956;-64
2021/07/01 03:52:35;;;;;;;;;0.00;0.00;;;;;17.20;64.54;101241.94;5103344;27;45260;-65
2021/07/01 03:55:02;;;;;;;;;0.00;0.00;;;;;17.19;63.95;101250.84;5107738;27;45209;-65
2021/07/01 03:57:27;;;;;;;;;0.00;0.00;;;;;17.16;63.90;101253.81;5111489;27;45440;-63
2021/07/01 03:59:53;;;;;;;;;0.00;0.00;;;;;17.11;63.98;101254.28;5102918;27;45566;-64
2021/07/01 04:02:18;;;;;;;;;0.00;0.00;;;;;17.09;63.58;101256.25;5084996;27;45266;-64
2021/07/01 04:04:43;;;;;;;;;0.00;0.00;;;;;17.09;64.04;101256.25;5114164;27;46397;-64
2021/07/01 04:07:09;;;;;;;;;0.00;0.00;;;;;17.08;64.04;101245.75;5103668;27;45285;-63
2021/07/01 04:09:34;;;;;;;;;0.00;0.00;;;;;17.09;63.70;101255.41;5103164;27;45196;-63
2021/07/01 04:11:59;;;;;;;;;0.00;0.00;;;;;17.09;63.66;101244.81;5102848;27;45193;-64
2021/07/01 04:14:25;;;;;;;;;0.00;0.00;;;;;17.08;63.93;101238.63;5122019;27;45345;-64
2021/07/01 04:16:50;;;;;;;;;0.00;0.00;;;;;17.08;63.56;101241.28;5105294;27;45574;-64
2021/07/01 04:19:15;;;;;;;;;0.00;0.00;;;;;17.09;63.46;101245.63;5122467;27;45339;-64
2021/07/01 04:21:41;;;;;;;;;0.00;0.00;;;;;17.10;63.54;101241.97;5104763;27;45859;-64
2021/07/01 04:24:07;;;;;;;;;0.00;0.00;;;;;17.09;63.31;101244.81;5123584;27;45365;-64
2021/07/01 04:26:33;;;;;;;;;0.00;0.00;;;;;17.09;63.54;101245.63;5123988;27;45374;-64
2021/07/01 04:28:58;;;;;;;;;0.00;0.00;;;;;17.10;63.32;101251.75;5122939;27;45351;-64
2021/07/01 04:31:24;;;;;;;;;0.00;0.00;;;;;17.08;63.78;101248.41;5123602;27;45382;-64
2021/07/01 04:33:49;;;;;;;;;0.00;0.00;;;;;17.11;63.21;101256.09;5123545;27;46609;-64
2021/07/01 04:36:14;;;;;;;;;0.00;0.00;;;;;17.11;63.70;101256.94;5123857;27;45300;-64
2021/07/01 04:38:40;;;;;;;;;0.00;0.00;;;;;17.11;63.51;101259.59;5122946;27;46485;-64
2021/07/01 04:41:05;;;;;;;;;0.00;0.00;;;;;17.19;63.75;101264.13;5123352;27;45245;-64
2021/07/01 04:43:31;;;;;;;;;0.00;0.00;;;;;17.24;63.67;101258.41;5104167;27;45331;-64
2021/07/01 04:45:56;;;;;;;;;0.00;0.00;;;;;17.31;63.24;101265.59;5123408;27;45334;-64
2021/07/01 04:48:21;;;;;;;;;0.00;0.00;;;;;17.40;63.11;101263.84;5123074;27;46176;-64
2021/07/01 04:50:47;;;;;;;;;0.00;0.00;;;;;17.48;62.88;101269.25;5123080;27;45320;-63
2021/07/01 04:53:12;;;;;;;;;0.00;0.00;;;;;17.53;62.73;101261.66;5104286;27;45273;-64
2021/07/01 04:55:37;;;;;;;;;0.00;0.00;;;;;17.60;62.65;101268.06;5123496;27;45171;-64
2021/07/01 04:58:03;;;;;;;;;0.00;0.00;;;;;17.65;62.63;101264.09;5104770;27;45423;-64
2021/07/01 05:00:28;;;;;;;;;0.00;0.00;;;;;17.65;62.11;101264.94;5101949;27;45168;-64
2021/07/01 05:02:54;;;;;;;;;0.00;0.00;;;;;17.64;62.23;101265.91;5102536;27;45360;-64
2021/07/01 05:05:19;;;;;;;;;0.00;0.00;;;;;17.66;62.16;101276.38;5112138;27;45282;-64
2021/07/01 05:07:46;;;;;;;;;0.00;0.00;;;;;17.66;61.71;101273.72;5102124;27;46465;-64
2021/07/01 05:10:12;;;;;;;;;0.00;0.00;;;;;17.66;62.36;101273.72;5102117;27;45403;-64
2021/07/01 05:12:38;;;;;;;;;0.00;0.00;;;;;17.66;61.92;101271.06;5105665;27;45399;-64
2021/07/01 05:15:05;;;;;;;;;0.00;0.00;;;;;17.66;62.29;101271.06;5104120;27;45596;-65
2021/07/01 05:17:30;;;;;;;;;0.00;0.00;;;;;17.66;62.13;101271.91;5122292;27;45668;-64
2021/07/01 05:19:56;;;;;;;;;0.00;0.00;;;;;17.65;61.92;101278.22;5122663;27;45454;-64
2021/07/01 05:22:21;;;;;;;;;0.00;0.00;;;;;17.66;61.86;101274.56;5122667;27;45179;-64
2021/07/01 05:24:48;;;;;;;;;0.00;0.00;;;;;17.67;61.85;101270.94;5122966;27;45483;-64
2021/07/01 05:27:13;;;;;;;;;0.00;0.00;;;;;17.68;61.60;101269.94;5122183;27;45242;-66
2021/07/01 05:29:39;;;;;;;;;0.00;0.00;;;;;17.70;61.83;101269.78;5103219;27;45280;-65
2021/07/01 05:32:04;;;;;;;;;0.00;0.00;;;;;17.71;61.62;101266.97;5103752;27;45244;-66
2021/07/01 05:34:30;;;;;;;;;0.00;0.00;;;;;17.69;61.95;101268.09;5122682;27;45209;-65
2021/07/01 05:36:55;;;;;;;;;0.00;0.00;;;;;17.70;61.97;101270.59;5103871;27;46970;-64
2021/07/01 05:39:20;;;;;;;;;0.00;0.00;;;;;17.74;61.67;101285.25;5122293;27;45397;-65
2021/07/01 05:41:46;;;;;;;;;0.00;0.00;;;;;17.76;61.51;101283.28;5103648;27;45324;-65
2021/07/01 05:44:11;;;;;;;;;0.00;0.00;;;;;17.80;61.50;101287.31;5122309;27;45956;-65
2021/07/01 05:46:36;;;;;;;;;0.00;0.00;;;;;17.83;61.15;101291.50;5121988;27;46209;-64
2021/07/01 05:49:02;;;;;;;;;0.00;0.00;;;;;17.82;61.17;101289.84;5122024;27;45387;-65
2021/07/01 05:51:29;;;;;;;;;0.00;0.00;;;;;17.85;61.14;101286.88;5121798;27;45285;-65
2021/07/01 05:56:38;;;;;;;;;0.00;0.00;;;;;17.95;61.37;101284.16;5116939;27;45229;-64
2021/07/01 05:59:07;;;;;;;;;0.00;0.00;;;;;18.06;61.13;101294.53;5100847;27;45290;-65
2021/07/01 06:01:34;;;;;;;;;0.00;0.00;;;;;18.19;60.53;101286.16;5101205;27;45248;-65
2021/07/01 06:03:59;;;;;;;;;0.00;0.00;;;;;18.34;59.87;101286.41;5092979;27;45338;-64
2021/07/01 06:06:25;;;;;;;;;0.00;0.00;;;;;18.46;59.64;101290.47;5101986;27;49526;-65
2021/07/01 06:08:52;;;;;;;;;0.00;0.00;;;;;18.62;58.88;101285.25;5101029;27;45317;-65
2021/07/01 06:11:18;;;;;;;;;0.00;0.00;;;;;18.87;58.52;101293.38;5101234;27;45365;-65
2021/07/01 06:13:44;;;;;;;;;0.00;0.00;;;;;19.23;58.59;101299.31;5114160;27;45439;-65
2021/07/01 06:16:12;;;;;;;;;0.00;0.00;;;;;19.84;58.23;101291.94;5102963;27;47162;-64
2021/07/01 06:18:40;;;;;;;;;0.00;0.00;;;;;20.23;57.09;101293.09;5102470;27;45277;-64
2021/07/01 06:21:06;;;;;;;;;0.00;0.00;;;;;20.26;56.27;101301.59;5121263;27;45265;-64
2021/07/01 06:23:32;;;;;;;;;0.00;0.00;;;;;20.19;56.21;101303.25;5120994;27;45547;-64
2021/07/01 06:25:59;;;;;;;;;0.00;0.00;;;;;20.13;55.99;101298.63;5121012;27;45387;-64
2021/07/01 06:28:26;;;;;;;;;0.00;0.00;;;;;20.10;55.90;101306.94;5120346;27;45356;-65
2021/07/01 06:30:52;;;;;;;;;0.00;0.00;;;;;20.10;55.90;101296.28;5102591;27;45156;-65
2021/07/01 06:33:19;;;;;;;;;0.00;0.00;;;;;20.13;54.99;101303.09;5121315;27;45364;-64
2021/07/01 06:35:50;;;;;;;;;0.00;0.00;;;;;20.16;55.49;101308.94;5120846;27;46560;-64
2021/07/01 06:38:18;;;;;;;;;0.00;0.00;;;;;20.24;55.32;101305.44;5121153;27;45214;-64
2021/07/01 06:40:47;;;;;;;;;0.00;0.00;;;;;20.36;54.84;101297.91;5121040;27;45213;-65
2021/07/01 06:43:13;;;;;;;;;0.00;0.00;;;;;20.49;54.36;101300.88;5123665;27;45346;-65
2021/07/01 06:45:38;;;;;;;;;0.00;0.00;;;;;20.66;54.05;101296.38;5123886;27;45418;-65
2021/07/01 06:48:05;;;;;;;;;0.00;0.00;;;;;20.88;53.80;101303.63;5124283;27;45365;-65
2021/07/01 06:50:30;;;;;;;;;0.00;0.00;;;;;21.15;53.68;101298.84;5124328;27;45290;-65
2021/07/01 06:52:58;;;;;;;;;0.00;0.00;;;;;21.37;52.43;101291.84;5123974;27;45520;-64
2021/07/01 06:55:24;;;;;;;;;0.00;0.00;;;;;21.56;52.48;101295.94;5124300;27;46342;-65
2021/07/01 06:57:50;;;;;;;;;0.00;0.00;;;;;21.83;51.98;101299.91;5107431;27;45249;-64
2021/07/01 07:00:18;;;;;;;;;0.00;0.00;;;;;22.10;51.02;101301.19;5103400;27;45289;-65
2021/07/01 07:02:44;;;;;;;;;0.00;0.00;;;;;22.32;50.29;101302.16;5103332;27;45432;-66
2021/07/01 07:05:13;;;;;;;;;0.00;0.00;;;;;22.43;50.37;101302.75;5113770;27;45410;-64
2021/07/01 07:07:43;;;;;;;;;0.00;0.00;;;;;22.52;50.17;101305.13;5103660;27;45208;-65
2021/07/01 07:10:10;;;;;;;;;0.00;0.00;;;;;22.63;49.52;101311.88;5103589;27;45432;-65
2021/07/01 07:12:40;;;;;;;;;0.00;0.00;;;;;22.76;48.96;101315.75;5106557;27;45548;-65
2021/07/01 07:15:08;;;;;;;;;0.00;0.00;;;;;22.87;48.92;101312.59;5123388;27;45361;-65
2021/07/01 07:17:37;;;;;;;;;0.00;0.00;;;;;22.97;48.51;101318.50;5123538;27;45308;-64
2021/07/01 07:20:03;;;;;;;;;0.00;0.00;;;;;23.10;47.77;101326.75;5105595;27;45354;-66
2021/07/01 07:22:31;;;;;;;;;0.00;0.00;;;;;23.19;47.60;101323.97;5123546;27;45296;-64
2021/07/01 07:25:02;;;;;;;;;0.00;0.00;;;;;23.28;48.03;101325.50;5123664;27;46517;-65
2021/07/01 07:27:29;;;;;;;;;0.00;0.00;;;;;23.31;47.12;101319.78;5123865;27;45207;-65
2021/07/01 07:29:55;;;;;;;;;0.00;0.00;;;;;23.27;47.39;101321.19;5123202;27;45178;-65
2021/07/01 07:32:26;;;;;;;;;0.00;0.00;;;;;23.46;46.76;101325.94;5104576;27;45286;-66
2021/07/01 07:34:52;;;;;;;;;0.00;0.00;;;;;23.98;46.43;101332.03;5122952;27;46470;-66
2021/07/01 07:37:18;;;;;;;;;0.00;0.00;;;;;24.47;45.88;101316.88;5123515;27;45251;-65
2021/07/01 07:39:45;;;;;;;;;0.00;0.00;;;;;24.87;45.38;101314.47;5123904;27;45204;-65
2021/07/01 07:42:11;;;;;;;;;0.00;0.00;;;;;25.24;44.83;101309.69;5105309;27;45279;-65
2021/07/01 07:44:41;;;;;;;;;0.00;0.00;;;;;25.67;43.66;101307.50;5123271;27;45260;-65
2021/07/01 07:47:12;;;;;;;;;0.00;0.00;;;;;26.24;42.36;101317.88;5123879;27;45180;-65
2021/07/01 07:49:38;;;;;;;;;0.00;0.00;;;;;26.57;42.08;101315.97;5123810;27;45419;-65
2021/07/01 07:52:06;;;;;;;;;0.00;0.00;;;;;27.03;41.66;101321.44;5123314;27;45308;-64
2021/07/01 07:54:37;;;;;;;;;0.00;0.00;;;;;27.48;41.03;101326.84;5122188;27;46492;-64
2021/07/01 07:57:05;;;;;;;;;0.00;0.00;;;;;27.90;40.58;101324.47;5113806;27;45284;-66
2021/07/01 07:59:30;;;;;;;;;0.00;0.00;;;;;28.01;39.38;101318.34;5102802;27;45267;-65
2021/07/01 08:01:58;;;;;;;;;0.00;0.00;;;;;28.01;38.89;101324.59;5102944;27;45435;-65
2021/07/01 08:04:26;;;;;;;;;0.00;0.00;;;;;27.74;39.11;101334.75;5112598;27;46156;-65
2021/07/01 08:06:54;;;;;;;;;0.00;0.00;;;;;27.27;39.15;101330.69;5103313;27;45364;-66
2021/07/01 08:09:24;;;;;;;;;0.00;0.00;;;;;26.98;39.84;101322.06;5103025;27;45360;-65
2021/07/01 08:11:51;;;;;;;;;0.00;0.00;;;;;27.34;39.64;101326.06;5084649;27;45257;-65
2021/07/01 08:14:18;;;;;;;;;0.00;0.00;;;;;27.74;38.92;101332.03;5119715;27;46557;-66
2021/07/01 08:16:45;;;;;;;;;0.00;0.00;;;;;27.98;38.14;101316.94;5122810;27;45404;-65
2021/07/01 08:19:11;;;;;;;;;0.00;0.00;;;;;28.60;38.26;101318.88;5122826;27;45258;-67
2021/07/01 08:21:36;;;;;;;;;0.00;0.00;;;;;29.19;37.52;101309.19;5093202;27;45259;-65
2021/07/01 08:24:03;;;;;;;;;0.00;0.00;;;;;29.60;35.88;101306.75;5083598;27;48406;-65
2021/07/01 08:26:28;;;;;;;;;0.00;0.00;;;;;29.70;35.73;101308.91;5102478;27;45587;-65
2021/07/01 08:28:54;;;;;;;;;0.00;0.00;;;;;29.85;35.56;101309.31;5082966;27;45228;-65
2021/07/01 08:31:20;;;;;;;;;0.00;0.00;;;;;29.37;34.64;101305.59;5102375;27;45384;-65
2021/07/01 08:33:48;;;;;;;;;0.00;0.00;;;;;28.97;36.08;101300.72;5083374;27;46230;-66
2021/07/01 08:36:22;;;;;;;;;0.00;0.00;;;;;28.77;35.70;101303.69;5102595;27;45394;-64
2021/07/01 08:38:53;;;;;;;;;0.00;0.00;;;;;28.54;36.31;101307.06;5103291;27;45341;-65
2021/07/01 08:41:27;;;;;;;;;0.00;0.00;;;;;28.81;35.61;101301.34;5110082;27;45237;-66
2021/07/01 08:43:53;;;;;;;;;0.00;0.00;;;;;28.60;35.98;101306.19;5101930;27;46449;-65
2021/07/01 08:46:27;;;;;;;;;0.00;0.00;;;;;28.51;35.98;101304.81;5102253;27;45238;-65
2021/07/01 08:49:00;;;;;;;;;0.00;0.00;;;;;28.68;35.72;101307.72;5102242;27;45296;-66
2021/07/01 08:51:39;;;;;;;;;0.00;0.00;;;;;29.07;36.33;101310.19;5102156;27;45249;-65
2021/07/01 08:54:35;;;;;;;;;0.00;0.00;;;;;29.14;35.65;101310.97;5101900;27;45460;-65
2021/07/01 08:57:11;;;;;;;;;0.00;0.00;;;;;29.21;35.39;101312.50;5101837;27;45615;-64
2021/07/01 08:59:42;;;;;;;;;0.00;0.00;;;;;29.14;35.27;101319.06;5101498;27;45399;-65
2021/07/01 09:02:11;;;;;;;;;0.00;0.00;;;;;28.77;35.18;101311.81;5102091;27;45285;-65
2021/07/01 09:04:48;;;;;;;;;0.00;0.00;;;;;29.13;35.30;101312.81;5111251;27;46051;-65
2021/07/01 09:07:19;;;;;;;;;0.00;0.00;;;;;30.27;35.14;101304.59;5101412;27;45297;-66
2021/07/01 09:09:53;;;;;;;;;0.00;0.00;;;;;31.13;33.33;101312.09;5109376;27;45532;-65
2021/07/01 09:12:22;;;;;;;;;0.00;0.00;;;;;31.30;32.48;101312.16;5101396;27;45373;-65
2021/07/01 09:14:53;;;;;;;;;0.00;0.00;;;;;31.55;32.07;101313.69;5101137;27;45611;-66
2021/07/01 09:17:21;;;;;;;;;0.00;0.00;;;;;32.86;31.84;101309.66;5103742;27;45291;-65
2021/07/01 09:19:46;;;;;;;;;0.00;0.00;;;;;33.97;30.10;101304.72;5122072;27;45340;-66
2021/07/01 09:22:13;;;;;;;;;0.00;0.00;;;;;33.78;29.51;101313.31;5122401;27;45295;-65
2021/07/01 09:24:39;;;;;;;;;0.00;0.00;;;;;33.18;29.58;101300.78;5122062;27;46070;-65
2021/07/01 09:27:12;;;;;;;;;0.00;0.00;;;;;32.53;30.15;101319.59;5121640;27;45431;-65
2021/07/01 09:29:41;;;;;;;;;0.00;0.00;;;;;32.06;30.68;101320.81;5121569;27;45286;-65
2021/07/01 09:32:09;;;;;;;;;0.00;0.00;;;;;31.71;30.66;101320.19;5120911;27;45414;-65
2021/07/01 09:34:35;;;;;;;;;0.00;0.00;;;;;31.54;30.66;101312.88;5121189;27;46366;-65
2021/07/01 09:37:04;;;;;;;;;0.00;0.00;;;;;31.37;30.62;101306.56;5121217;27;45374;-65
2021/07/01 09:39:33;;;;;;;;;0.00;0.00;;;;;31.34;30.99;101307.03;5121654;27;45490;-66
2021/07/01 09:42:01;;;;;;;;;0.00;0.00;;;;;31.16;30.53;101310.78;5121976;27;45322;-65
2021/07/01 09:44:28;;;;;;;;;0.00;0.00;;;;;30.75;30.88;101309.97;5120767;27;46958;-65
2021/07/01 09:46:56;;;;;;;;;0.00;0.00;;;;;30.66;30.97;101310.31;5121677;27;45345;-65
2021/07/01 09:49:29;;;;;;;;;0.00;0.00;;;;;30.71;31.73;101317.75;5121727;27;45274;-66
2021/07/01 09:51:57;;;;;;;;;0.00;0.00;;;;;30.92;31.88;101313.59;5122043;27;45398;-65
2021/07/01 09:54:23;;;;;;;;;0.00;0.00;;;;;31.39;30.65;101318.81;5121449;27;45489;-66
2021/07/01 09:56:54;;;;;;;;;0.00;0.00;;;;;31.78;30.35;101313.53;5114261;27;45284;-65
2021/07/01 09:59:25;;;;;;;;;0.00;0.00;;;;;31.78;29.51;101323.59;5081775;27;45414;-65
2021/07/01 10:01:50;;;;;;;;;0.00;0.00;;;;;31.46;29.85;101311.38;5101100;27;45219;-65
2021/07/01 10:04:15;;;;;;;;;0.00;0.00;;;;;31.17;30.66;101302.41;5111440;27;45490;-65
2021/07/01 10:06:41;;;;;;;;;0.00;0.00;;;;;30.99;29.64;101311.56;5100771;27;45365;-65
2021/07/01 10:09:07;;;;;;;;;0.00;0.00;;;;;30.48;30.91;101310.50;5100515;27;45493;-65
2021/07/01 10:11:41;;;;;;;;;0.00;0.00;;;;;30.52;31.72;101305.41;5100955;27;45272;-65
2021/07/01 10:14:10;;;;;;;;;0.00;0.00;;;;;31.55;31.17;101313.69;5115532;27;46188;-65
2021/07/01 10:16:35;;;;;;;;;0.00;0.00;;;;;31.63;29.73;101308.69;5122367;27;45269;-64
2021/07/01 10:19:03;;;;;;;;;0.00;0.00;;;;;30.91;30.01;101308.41;5124755;27;45257;-65
2021/07/01 10:21:32;;;;;;;;;0.00;0.00;;;;;30.24;30.71;101309.66;5124634;27;45242;-64
2021/07/01 10:24:15;;;;;;;;;0.00;0.00;;;;;29.70;31.32;101300.78;5124064;27;46578;-65
2021/07/01 10:26:48;;;;;;;;;0.00;0.00;;;;;29.50;31.58;101307.28;5124749;27;45311;-65
2021/07/01 10:29:15;;;;;;;;;0.00;0.00;;;;;29.34;32.38;101306.09;5105706;27;45344;-66
2021/07/01 10:31:52;;;;;;;;;0.00;0.00;;;;;29.12;32.86;101305.78;5124682;27;45538;-66
2021/07/01 10:34:18;;;;;;;;;0.00;0.00;;;;;28.80;33.05;101303.22;5124181;27;46226;-64
2021/07/01 10:36:43;;;;;;;;;0.00;0.00;;;;;28.51;33.67;101302.13;5124229;27;45264;-65
2021/07/01 10:39:09;;;;;;;;;0.00;0.00;;;;;28.22;33.87;101303.63;5105455;27;45389;-64
2021/07/01 10:41:37;;;;;;;;;0.00;0.00;;;;;27.93;34.25;101308.69;5124374;27;45291;-65
2021/07/01 10:44:04;;;;;;;;;0.00;0.00;;;;;27.64;34.71;101307.41;5123898;27;45408;-64
2021/07/01 10:46:40;;;;;;;;;0.00;0.00;;;;;27.25;35.09;101314.69;5124259;27;45241;-65
2021/07/01 10:49:06;;;;;;;;;0.00;0.00;;;;;27.08;35.33;101310.81;5106125;27;45483;-64
2021/07/01 10:51:32;;;;;;;;;0.00;0.00;;;;;27.09;35.88;101310.63;5124403;27;45365;-65
2021/07/01 10:54:13;;;;;;;;;0.00;0.00;;;;;27.01;35.56;101303.59;5105458;27;47551;-64
2021/07/01 10:56:42;;;;;;;;;0.00;0.00;;;;;26.90;35.79;101317.75;5117982;27;45490;-64
2021/07/01 10:59:10;;;;;;;;;0.00;0.00;;;;;26.83;36.07;101308.88;5103042;27;45409;-64
2021/07/01 11:01:37;;;;;;;;;0.00;0.00;;;;;26.84;35.97;101307.81;5103330;27;45244;-64
2021/07/01 11:04:16;;;;;;;;;0.00;0.00;;;;;26.97;36.45;101310.44;5113641;27;46501;-66
2021/07/01 11:06:59;;;;;;;;;0.00;0.00;;;;;27.01;36.22;101302.75;5097319;27;46040;-64
2021/07/01 11:09:40;;;;;;;;;0.00;0.00;;;;;27.04;36.23;101314.97;5103415;27;45299;-64
2021/07/01 11:12:06;;;;;;;;;0.00;0.00;;;;;27.01;36.37;101316.25;5103371;27;45262;-65
2021/07/01 11:15:04;;;;;;;;;0.00;0.00;;;;;27.41;36.32;101319.59;5122462;27;45223;-65
2021/07/01 11:17:35;;;;;;;;;0.00;0.00;;;;;27.74;35.77;101312.31;5111379;27;45533;-65
2021/07/01 11:20:21;;;;;;;;;0.00;0.00;;;;;27.74;35.51;101310.44;5123576;27;45316;-65
2021/07/01 11:22:54;;;;;;;;;0.00;0.00;;;;;27.52;35.55;101304.59;5104810;27;45223;-64
2021/07/01 11:25:40;;;;;;;;;0.00;0.00;;;;;27.57;35.55;101306.63;5123837;27;45605;-64
2021/07/01 11:28:22;;;;;;;;;0.00;0.00;;;;;27.63;35.28;101307.66;5123251;27;45355;-67
2021/07/01 11:30:54;;;;;;;;;0.00;0.00;;;;;27.66;35.46;101310.72;5104911;27;45322;-65
2021/07/01 11:33:21;;;;;;;;;0.00;0.00;;;;;27.75;35.67;101311.25;5123478;27;45395;-65